createdAt,value
2023-01-19T00:00:38.573Z,998.14
2023-01-19T00:02:35.832Z,998.27
2023-01-19T00:04:35.365Z,998.27
2023-01-19T00:06:36.145Z,998.21
2023-01-19T00:08:35.802Z,998.21
2023-01-19T00:10:35.888Z,998.29
2023-01-19T00:12:35.378Z,998.29
2023-01-19T00:14:35.902Z,998.28
2023-01-19T00:16:36.505Z,998.28
2023-01-19T00:18:35.850Z,998.27
2023-01-19T00:20:35.692Z,998.27
2023-01-19T00:22:35.827Z,998.21
2023-01-19T00:24:35.296Z,998.21
2023-01-19T00:26:35.779Z,998.45
2023-01-19T00:28:35.892Z,998.45
2023-01-19T00:30:35.647Z,998.49
2023-01-19T00:32:35.274Z,998.49
2023-01-19T00:34:35.615Z,998.49
2023-01-19T00:36:36.043Z,998.49
2023-01-19T00:38:35.390Z,998.54
2023-01-19T00:40:36.014Z,998.54
2023-01-19T00:42:35.464Z,998.48
2023-01-19T00:44:35.695Z,998.48
2023-01-19T00:46:35.403Z,998.39
2023-01-19T00:48:35.778Z,998.39
2023-01-19T00:50:35.172Z,998.65
2023-01-19T00:52:35.466Z,998.65
2023-01-19T00:54:35.094Z,998.62
2023-01-19T00:56:35.784Z,998.62
2023-01-19T00:58:35.084Z,998.68
2023-01-19T01:00:38.724Z,998.68
2023-01-19T01:02:36.969Z,998.7
2023-01-19T01:04:35.190Z,998.7
2023-01-19T01:06:35.455Z,998.82
2023-01-19T01:08:35.979Z,998.82
2023-01-19T01:10:35.676Z,998.92
2023-01-19T01:12:35.155Z,998.92
2023-01-19T01:14:35.774Z,998.99
2023-01-19T01:16:35.629Z,998.99
2023-01-19T01:18:35.888Z,998.96
2023-01-19T01:20:35.257Z,998.96
2023-01-19T01:22:35.836Z,999.04
2023-01-19T01:24:35.487Z,999.04
2023-01-19T01:26:38.444Z,999.15
2023-01-19T01:28:35.287Z,999.15
2023-01-19T01:30:35.996Z,999.28
2023-01-19T01:32:35.505Z,999.28
2023-01-19T01:34:35.780Z,999.21
2023-01-19T01:36:35.329Z,999.21
2023-01-19T01:38:35.890Z,999.26
2023-01-19T01:40:35.541Z,999.26
2023-01-19T01:42:36.029Z,999.41
2023-01-19T01:44:35.698Z,999.41
2023-01-19T01:46:36.289Z,999.37
2023-01-19T01:48:35.595Z,999.37
2023-01-19T01:50:35.113Z,999.49
2023-01-19T01:52:35.537Z,999.49
2023-01-19T01:54:35.211Z,999.6
2023-01-19T01:56:35.578Z,999.6
2023-01-19T01:58:35.962Z,999.56
2023-01-19T02:00:38.469Z,999.56
2023-01-19T02:02:36.115Z,999.65
2023-01-19T02:04:35.198Z,999.65
2023-01-19T02:06:35.567Z,999.65
2023-01-19T02:08:35.191Z,999.65
2023-01-19T02:10:35.685Z,999.54
2023-01-19T02:12:35.170Z,999.54
2023-01-19T02:14:35.759Z,999.72
2023-01-19T02:16:35.455Z,999.72
2023-01-19T02:18:35.958Z,999.67
2023-01-19T02:20:35.505Z,999.48
2023-01-19T02:22:35.070Z,999.48
2023-01-19T02:24:35.792Z,999.38
2023-01-19T02:26:35.302Z,999.38
2023-01-19T02:28:35.690Z,999.48
2023-01-19T02:30:35.607Z,999.48
2023-01-19T02:32:35.973Z,999.57
2023-01-19T02:34:35.648Z,999.57
2023-01-19T02:36:35.806Z,999.61
2023-01-19T02:38:35.343Z,999.61
2023-01-19T02:40:35.861Z,999.54
2023-01-19T02:42:35.192Z,999.54
2023-01-19T02:44:35.484Z,999.58
2023-01-19T02:46:36.247Z,999.58
2023-01-19T02:48:35.538Z,999.83
2023-01-19T02:50:36.016Z,999.83
2023-01-19T02:52:35.573Z,999.75
2023-01-19T02:54:35.231Z,999.75
2023-01-19T02:56:35.693Z,999.83
2023-01-19T02:58:35.111Z,999.83
2023-01-19T03:00:39.051Z,999.84
2023-01-19T03:02:36.152Z,999.84
2023-01-19T03:04:35.277Z,999.66
2023-01-19T03:06:35.552Z,999.66
2023-01-19T03:08:35.132Z,999.63
2023-01-19T03:10:35.920Z,999.63
2023-01-19T03:12:35.311Z,999.55
2023-01-19T03:14:35.940Z,999.55
2023-01-19T03:16:35.692Z,999.7
2023-01-19T03:18:35.795Z,999.7
2023-01-19T03:20:35.637Z,999.69
2023-01-19T03:22:35.884Z,999.69
2023-01-19T03:24:37.010Z,999.87
2023-01-19T03:26:36.094Z,999.87
2023-01-19T03:28:35.287Z,999.93
2023-01-19T03:30:35.907Z,999.93
2023-01-19T03:32:35.319Z,999.9
2023-01-19T03:34:35.754Z,999.9
2023-01-19T03:36:35.352Z,1000
2023-01-19T03:38:35.959Z,1000
2023-01-19T03:40:35.552Z,1000.17
2023-01-19T03:42:35.969Z,1000.17
2023-01-19T03:44:35.552Z,1000.17
2023-01-19T03:46:35.516Z,1000.17
2023-01-19T03:48:35.750Z,1000.19
2023-01-19T03:50:35.450Z,1000.19
2023-01-19T03:52:35.919Z,1000.22
2023-01-19T03:54:35.494Z,1000.22
2023-01-19T03:56:36.086Z,1000.3
2023-01-19T03:58:35.443Z,1000.3
2023-01-19T04:00:38.601Z,1000.25
2023-01-19T04:02:35.604Z,1000.25
2023-01-19T04:04:35.635Z,1000.34
2023-01-19T04:06:35.106Z,1000.34
2023-01-19T04:08:35.547Z,1000.36
2023-01-19T04:10:36.136Z,1000.36
2023-01-19T04:12:35.563Z,1000.43
2023-01-19T04:14:35.113Z,1000.43
2023-01-19T04:16:35.819Z,1000.46
2023-01-19T04:18:35.270Z,1000.46
2023-01-19T04:20:35.816Z,1000.42
2023-01-19T04:22:35.354Z,1000.42
2023-01-19T04:24:35.851Z,1000.35
2023-01-19T04:26:35.411Z,1000.35
2023-01-19T04:28:36.048Z,1000.41
2023-01-19T04:30:35.304Z,1000.41
2023-01-19T04:32:35.959Z,1000.32
2023-01-19T04:34:35.533Z,1000.32
2023-01-19T04:36:35.892Z,1000.36
2023-01-19T04:38:35.387Z,1000.36
2023-01-19T04:40:35.987Z,1000.36
2023-01-19T04:42:35.314Z,1000.36
2023-01-19T04:44:35.824Z,1000.56
2023-01-19T04:46:35.608Z,1000.56
2023-01-19T04:48:35.957Z,1000.47
2023-01-19T04:50:35.404Z,1000.47
2023-01-19T04:52:36.006Z,1000.49
2023-01-19T04:54:35.867Z,1000.49
2023-01-19T04:56:36.306Z,1000.53
2023-01-19T04:58:35.558Z,1000.53
2023-01-19T05:00:36.663Z,1000.56
2023-01-19T05:02:35.522Z,1000.56
2023-01-19T05:04:35.640Z,1000.57
2023-01-19T05:06:35.123Z,1000.57
2023-01-19T05:08:35.636Z,1000.6
2023-01-19T05:10:35.384Z,1000.6
2023-01-19T05:12:35.931Z,1000.78
2023-01-19T05:14:35.497Z,1000.78
2023-01-19T05:16:36.509Z,1000.62
2023-01-19T05:18:35.644Z,1000.62
2023-01-19T05:20:38.622Z,1000.74
2023-01-19T05:22:35.970Z,1000.74
2023-01-19T05:24:35.466Z,1000.63
2023-01-19T05:26:36.036Z,1000.63
2023-01-19T05:28:35.313Z,1000.75
2023-01-19T05:30:35.953Z,1000.75
2023-01-19T05:32:35.609Z,1000.84
2023-01-19T05:34:35.091Z,1000.84
2023-01-19T05:36:35.629Z,1000.77
2023-01-19T05:38:46.373Z,1000.8
2023-01-19T05:40:35.889Z,1000.8
2023-01-19T05:42:35.280Z,1000.8
2023-01-19T05:44:35.863Z,1000.89
2023-01-19T05:46:35.580Z,1000.91
2023-01-19T05:48:36.087Z,1000.91
2023-01-19T05:50:35.693Z,1000.89
2023-01-19T05:52:36.100Z,1000.89
2023-01-19T05:54:35.777Z,1000.99
2023-01-19T05:56:35.399Z,1000.99
2023-01-19T05:58:35.924Z,1000.97
2023-01-19T06:00:39.062Z,1000.97
2023-01-19T06:02:36.186Z,1001.14
2023-01-19T06:04:35.630Z,1001.14
2023-01-19T06:06:36.309Z,1001.08
2023-01-19T06:08:35.728Z,1001.08
2023-01-19T06:10:36.116Z,1001.15
2023-01-19T06:12:35.579Z,1001.15
2023-01-19T06:14:35.996Z,1001.29
2023-01-19T06:16:35.782Z,1001.29
2023-01-19T06:18:36.074Z,1001.24
2023-01-19T06:20:35.404Z,1001.24
2023-01-19T06:22:35.845Z,1001.27
2023-01-19T06:24:37.176Z,1001.27
2023-01-19T06:26:36.031Z,1001.39
2023-01-19T06:28:35.360Z,1001.39
2023-01-19T06:30:36.034Z,1001.37
2023-01-19T06:32:35.763Z,1001.37
2023-01-19T06:34:35.814Z,1001.4
2023-01-19T06:36:35.339Z,1001.4
2023-01-19T06:38:35.783Z,1001.46
2023-01-19T06:40:37.117Z,1001.46
2023-01-19T06:42:35.661Z,1001.58
2023-01-19T06:44:35.269Z,1001.58
2023-01-19T06:46:36.276Z,1001.61
2023-01-19T06:48:35.325Z,1001.61
2023-01-19T06:50:35.933Z,1001.65
2023-01-19T06:52:35.587Z,1001.65
2023-01-19T06:54:35.932Z,1001.71
2023-01-19T06:56:36.554Z,1001.71
2023-01-19T06:58:35.796Z,1001.81
2023-01-19T07:00:40.068Z,1001.81
2023-01-19T07:03:02.513Z,1001.85
2023-01-19T07:04:35.583Z,1001.85
2023-01-19T07:06:35.072Z,1001.94
2023-01-19T07:08:35.660Z,1001.94
2023-01-19T07:11:21.575Z,1001.92
2023-01-19T07:12:36.090Z,1001.92
2023-01-19T07:14:35.422Z,1002.01
2023-01-19T07:16:35.298Z,1002.01
2023-01-19T07:18:35.689Z,1002.14
2023-01-19T07:20:35.267Z,1002.14
2023-01-19T07:22:35.728Z,1002.23
2023-01-19T07:24:36.038Z,1002.23
2023-01-19T07:26:35.192Z,1002.27
2023-01-19T07:28:35.733Z,1002.27
2023-01-19T07:30:35.289Z,1002.44
2023-01-19T07:32:35.542Z,1002.44
2023-01-19T07:34:35.916Z,1002.42
2023-01-19T07:36:35.218Z,1002.42
2023-01-19T07:38:35.920Z,1002.51
2023-01-19T07:40:35.468Z,1002.51
2023-01-19T07:42:35.655Z,1002.47
2023-01-19T07:44:35.210Z,1002.47
2023-01-19T07:46:35.948Z,1002.48
2023-01-19T07:48:35.089Z,1002.48
2023-01-19T07:50:35.701Z,1002.47
2023-01-19T07:52:35.153Z,1002.47
2023-01-19T07:54:35.589Z,1002.6
2023-01-19T07:56:35.880Z,1002.6
2023-01-19T07:58:35.435Z,1002.65
2023-01-19T08:00:38.927Z,1002.65
2023-01-19T08:02:37.679Z,1002.64
2023-01-19T08:04:35.824Z,1002.64
2023-01-19T08:06:35.143Z,1002.81
2023-01-19T08:08:35.750Z,1002.81
2023-01-19T08:10:35.413Z,1002.91
2023-01-19T08:12:35.837Z,1002.91
2023-01-19T08:14:35.523Z,1002.81
2023-01-19T08:16:36.125Z,1002.81
2023-01-19T08:18:35.377Z,1002.99
2023-01-19T08:20:35.865Z,1002.99
2023-01-19T08:22:35.271Z,1002.98
2023-01-19T08:24:35.863Z,1002.98
2023-01-19T08:26:35.187Z,1003.05
2023-01-19T08:28:35.602Z,1003.05
2023-01-19T08:30:35.403Z,1003.09
2023-01-19T08:32:36.134Z,1003.09
2023-01-19T08:34:35.127Z,1003.16
2023-01-19T08:36:35.765Z,1003.16
2023-01-19T08:38:35.345Z,1003.21
2023-01-19T08:40:35.701Z,1003.21
2023-01-19T08:42:35.399Z,1003.2
2023-01-19T08:44:37.867Z,1003.2
2023-01-19T08:46:35.602Z,1003.35
2023-01-19T08:48:35.795Z,1003.35
2023-01-19T08:50:35.527Z,1003.33
2023-01-19T08:52:35.977Z,1003.33
2023-01-19T08:54:35.220Z,1003.25
2023-01-19T08:56:35.819Z,1003.25
2023-01-19T08:58:35.805Z,1003.36
2023-01-19T09:00:40.698Z,1003.28
2023-01-19T09:02:36.499Z,1003.28
2023-01-19T09:04:35.422Z,1003.28
2023-01-19T09:06:35.999Z,1003.38
2023-01-19T09:08:35.927Z,1003.42
2023-01-19T09:10:36.204Z,1003.42
2023-01-19T09:12:35.500Z,1003.46
2023-01-19T09:14:35.221Z,1003.46
2023-01-19T09:16:36.221Z,1003.42
2023-01-19T09:18:35.812Z,1003.42
2023-01-19T09:20:35.914Z,1003.42
2023-01-19T09:22:35.411Z,1003.42
2023-01-19T09:24:35.920Z,1003.5
2023-01-19T09:26:35.330Z,1003.5
2023-01-19T09:28:36.511Z,1003.57
2023-01-19T09:30:35.611Z,1003.57
2023-01-19T09:32:36.067Z,1003.51
2023-01-19T09:34:35.642Z,1003.51
2023-01-19T09:36:35.144Z,1003.58
2023-01-19T09:38:36.259Z,1003.58
2023-01-19T09:40:35.582Z,1003.61
2023-01-19T09:42:35.890Z,1003.61
2023-01-19T09:44:35.331Z,1003.74
2023-01-19T09:46:36.025Z,1003.74
2023-01-19T09:48:35.944Z,1003.75
2023-01-19T09:50:35.777Z,1003.75
2023-01-19T09:52:35.426Z,1003.75
2023-01-19T09:54:35.713Z,1003.75
2023-01-19T09:56:35.903Z,1003.84
2023-01-19T09:58:36.183Z,1003.84
2023-01-19T10:00:39.422Z,1003.84
2023-01-19T10:02:36.145Z,1003.84
2023-01-19T10:04:35.480Z,1003.8
2023-01-19T10:06:36.331Z,1003.8
2023-01-19T10:08:36.199Z,1003.9
2023-01-19T10:10:36.082Z,1003.9
2023-01-19T10:12:35.530Z,1003.91
2023-01-19T10:14:35.111Z,1003.91
2023-01-19T10:16:35.865Z,1004
2023-01-19T10:18:35.930Z,1004
2023-01-19T10:20:35.783Z,1003.93
2023-01-19T10:22:35.293Z,1003.93
2023-01-19T10:24:35.792Z,1003.98
2023-01-19T10:26:35.333Z,1003.98
2023-01-19T10:28:35.880Z,1004.03
2023-01-19T10:30:35.733Z,1004.03
2023-01-19T10:32:36.275Z,1004.1
2023-01-19T10:34:35.493Z,1004.1
2023-01-19T10:36:36.141Z,1004.08
2023-01-19T10:38:35.556Z,1004.08
2023-01-19T10:40:35.167Z,1004.02
2023-01-19T10:42:36.043Z,1004.02
2023-01-19T10:44:35.342Z,1004.14
2023-01-19T10:46:36.058Z,1004.14
2023-01-19T10:48:35.254Z,1004.14
2023-01-19T10:50:35.849Z,1004.14
2023-01-19T10:52:35.387Z,1004.09
2023-01-19T10:54:35.853Z,1004.09
2023-01-19T10:56:35.293Z,1004.06
2023-01-19T10:58:35.959Z,1004.06
2023-01-19T11:00:39.927Z,1004.07
2023-01-19T11:02:36.587Z,1004.07
2023-01-19T11:04:35.816Z,1004.1
2023-01-19T11:06:35.251Z,1004.1
2023-01-19T11:08:35.562Z,1004.11
2023-01-19T11:10:35.202Z,1004.11
2023-01-19T11:12:35.505Z,1004.13
2023-01-19T11:14:35.927Z,1004.13
2023-01-19T11:16:35.595Z,1004.14
2023-01-19T11:18:35.953Z,1004.14
2023-01-19T11:20:35.546Z,1004.16
2023-01-19T11:22:35.805Z,1004.16
2023-01-19T11:24:35.386Z,1004.08
2023-01-19T11:26:35.888Z,1004.08
2023-01-19T11:28:35.471Z,1004.24
2023-01-19T11:30:35.819Z,1004.24
2023-01-19T11:32:35.345Z,1004.24
2023-01-19T11:34:35.848Z,1004.24
2023-01-19T11:36:35.394Z,1004.25
2023-01-19T11:38:35.573Z,1004.25
2023-01-19T11:40:36.986Z,1004.08
2023-01-19T11:42:35.781Z,1004.08
2023-01-19T11:44:35.283Z,1004.23
2023-01-19T11:46:35.732Z,1004.23
2023-01-19T11:48:35.696Z,1004.14
2023-01-19T11:50:35.843Z,1004.14
2023-01-19T11:52:35.367Z,1004.17
2023-01-19T11:54:35.797Z,1004.17
2023-01-19T11:56:35.401Z,1004.18
2023-01-19T11:58:36.643Z,1004.18
2023-01-19T12:00:38.062Z,1004.25
2023-01-19T12:02:36.176Z,1004.25
2023-01-19T12:04:35.527Z,1004.12
2023-01-19T12:06:35.886Z,1004.12
2023-01-19T12:08:37.879Z,1004.16
2023-01-19T12:10:35.663Z,1004.16
2023-01-19T12:12:36.124Z,1004.18
2023-01-19T12:14:35.472Z,1004.18
2023-01-19T12:16:36.058Z,1004.19
2023-01-19T12:18:35.976Z,1004.19
2023-01-19T12:20:36.308Z,1004.17
2023-01-19T12:22:35.574Z,1004.17
2023-01-19T12:24:36.078Z,1004.1
2023-01-19T12:26:35.379Z,1004.1
2023-01-19T12:28:35.855Z,1004
2023-01-19T12:30:35.943Z,1004.09
2023-01-19T12:32:36.180Z,1004.09
2023-01-19T12:34:35.520Z,1004.1
2023-01-19T12:36:36.009Z,1004.1
2023-01-19T12:38:35.284Z,1004.11
2023-01-19T12:40:35.939Z,1004.11
2023-01-19T12:42:35.379Z,1004.11
2023-01-19T12:44:35.738Z,1004.11
2023-01-19T12:46:35.435Z,1004.07
2023-01-19T12:48:35.837Z,1004.07
2023-01-19T12:50:35.482Z,1004.18
2023-01-19T12:52:35.897Z,1004.18
2023-01-19T12:54:35.300Z,1004.18
2023-01-19T12:56:35.867Z,1004.18
2023-01-19T12:58:35.455Z,1004.11
2023-01-19T13:00:38.944Z,1004.11
2023-01-19T13:02:36.137Z,1004.03
2023-01-19T13:04:35.575Z,1004.03
2023-01-19T13:06:35.994Z,1004.08
2023-01-19T13:08:35.382Z,1004.08
2023-01-19T13:10:35.850Z,1004
2023-01-19T13:12:35.250Z,1004
2023-01-19T13:14:35.625Z,1004.06
2023-01-19T13:16:35.468Z,1004.06
2023-01-19T13:18:35.899Z,1004.09
2023-01-19T13:20:35.586Z,1004.09
2023-01-19T13:22:35.961Z,1004.11
2023-01-19T13:24:35.190Z,1004.11
2023-01-19T13:26:35.849Z,1004.15
2023-01-19T13:28:35.371Z,1004.15
2023-01-19T13:30:36.480Z,1004.23
2023-01-19T13:32:35.453Z,1004.23
2023-01-19T13:34:35.932Z,1004.13
2023-01-19T13:36:35.390Z,1004.13
2023-01-19T13:38:35.857Z,1004.15
2023-01-19T13:40:36.094Z,1004.15
2023-01-19T13:42:35.822Z,1004.18
2023-01-19T13:44:35.196Z,1004.18
2023-01-19T13:46:36.029Z,1004.16
2023-01-19T13:48:35.414Z,1004.16
2023-01-19T13:50:36.542Z,1004.17
2023-01-19T13:52:35.473Z,1004.17
2023-01-19T13:54:36.098Z,1004.25
2023-01-19T13:56:35.432Z,1004.25
2023-01-19T13:58:35.893Z,1004.23
2023-01-19T14:00:38.224Z,1004.23
2023-01-19T14:02:36.927Z,1004.24
2023-01-19T14:04:35.452Z,1004.24
2023-01-19T14:06:36.386Z,1004.33
2023-01-19T14:08:35.496Z,1004.33
2023-01-19T14:10:36.035Z,1004.33
2023-01-19T14:12:37.640Z,1004.33
2023-01-19T14:14:35.974Z,1004.33
2023-01-19T14:16:35.560Z,1004.33
2023-01-19T14:18:35.933Z,1004.43
2023-01-19T14:20:35.754Z,1004.43
2023-01-19T14:22:35.915Z,1004.5
2023-01-19T14:24:35.398Z,1004.5
2023-01-19T14:26:35.818Z,1004.4
2023-01-19T14:28:35.317Z,1004.4
2023-01-19T14:30:35.692Z,1004.47
2023-01-19T14:32:35.291Z,1004.47
2023-01-19T14:34:35.574Z,1004.45
2023-01-19T14:36:36.045Z,1004.45
2023-01-19T14:38:35.344Z,1004.56
2023-01-19T14:40:36.152Z,1004.56
2023-01-19T14:42:35.584Z,1004.54
2023-01-19T14:44:35.890Z,1004.54
2023-01-19T14:46:35.762Z,1004.51
2023-01-19T14:48:36.171Z,1004.51
2023-01-19T14:50:35.482Z,1004.59
2023-01-19T14:52:35.972Z,1004.59
2023-01-19T14:54:35.418Z,1004.58
2023-01-19T14:56:35.881Z,1004.58
2023-01-19T14:58:35.306Z,1004.55
2023-01-19T15:00:40.358Z,1004.55
2023-01-19T15:02:36.542Z,1004.63
2023-01-19T15:04:35.432Z,1004.63
2023-01-19T15:06:38.168Z,1004.71
2023-01-19T15:08:35.527Z,1004.71
2023-01-19T15:10:36.344Z,1004.66
2023-01-19T15:12:35.508Z,1004.66
2023-01-19T15:14:35.025Z,1004.83
2023-01-19T15:16:35.833Z,1004.83
2023-01-19T15:18:35.204Z,1004.84
2023-01-19T15:20:35.735Z,1004.84
2023-01-19T15:22:35.421Z,1004.86
2023-01-19T15:24:35.992Z,1004.86
2023-01-19T15:26:35.452Z,1004.79
2023-01-19T15:28:35.863Z,1004.79
2023-01-19T15:30:35.568Z,1004.87
2023-01-19T15:32:35.971Z,1004.87
2023-01-19T15:34:35.269Z,1004.87
2023-01-19T15:36:35.867Z,1004.87
2023-01-19T15:38:35.192Z,1004.85
2023-01-19T15:40:35.816Z,1004.85
2023-01-19T15:42:35.233Z,1004.93
2023-01-19T15:44:35.645Z,1004.93
2023-01-19T15:46:35.309Z,1004.89
2023-01-19T15:48:36.101Z,1004.89
2023-01-19T15:50:35.460Z,1004.89
2023-01-19T15:52:35.889Z,1005.03
2023-01-19T15:54:35.290Z,1005.03
2023-01-19T15:56:35.755Z,1005.05
2023-01-19T15:58:36.454Z,1005.05
2023-01-19T16:00:39.197Z,1005.02
2023-01-19T16:02:36.330Z,1005.02
2023-01-19T16:04:35.948Z,1004.94
2023-01-19T16:06:35.483Z,1004.94
2023-01-19T16:08:35.972Z,1004.94
2023-01-19T16:10:35.555Z,1004.94
2023-01-19T16:12:36.056Z,1005.05
2023-01-19T16:14:35.288Z,1005.05
2023-01-19T16:16:36.144Z,1005.01
2023-01-19T16:18:35.466Z,1005.01
2023-01-19T16:20:37.577Z,1005.01
2023-01-19T16:22:35.695Z,1005.01
2023-01-19T16:24:35.160Z,1005.03
2023-01-19T16:26:35.552Z,1005.03
2023-01-19T16:28:35.975Z,1005.15
2023-01-19T16:30:35.890Z,1005.15
2023-01-19T16:32:35.854Z,1005.26
2023-01-19T16:34:35.361Z,1005.26
2023-01-19T16:36:35.944Z,1005.35
2023-01-19T16:38:35.375Z,1005.35
2023-01-19T16:40:35.755Z,1005.41
2023-01-19T16:42:35.234Z,1005.41
2023-01-19T16:44:35.902Z,1005.43
2023-01-19T16:46:35.620Z,1005.43
2023-01-19T16:48:35.841Z,1005.55
2023-01-19T16:50:35.881Z,1005.55
2023-01-19T16:52:35.827Z,1005.49
2023-01-19T16:54:35.245Z,1005.49
2023-01-19T16:56:35.525Z,1005.44
2023-01-19T16:58:35.094Z,1005.44
2023-01-19T17:00:38.464Z,1005.56
2023-01-19T17:02:36.675Z,1005.56
2023-01-19T17:04:35.628Z,1005.41
2023-01-19T17:06:35.244Z,1005.41
2023-01-19T17:08:35.842Z,1005.52
2023-01-19T17:10:35.890Z,1005.52
2023-01-19T17:12:35.725Z,1005.47
2023-01-19T17:14:35.357Z,1005.47
2023-01-19T17:16:35.906Z,1005.55
2023-01-19T17:18:35.232Z,1005.55
2023-01-19T17:20:36.394Z,1005.57
2023-01-19T17:22:35.374Z,1005.57
2023-01-19T17:24:35.743Z,1005.67
2023-01-19T17:26:35.343Z,1005.67
2023-01-19T17:28:35.746Z,1005.57
2023-01-19T17:30:36.331Z,1005.57
2023-01-19T17:32:35.854Z,1005.68
2023-01-19T17:34:35.227Z,1005.68
2023-01-19T17:36:35.775Z,1005.75
2023-01-19T17:38:35.238Z,1005.75
2023-01-19T17:40:36.258Z,1005.78
2023-01-19T17:42:35.345Z,1005.78
2023-01-19T17:44:36.032Z,1005.94
2023-01-19T17:46:35.520Z,1005.94
2023-01-19T17:48:35.672Z,1006.22
2023-01-19T17:50:36.513Z,1006.22
2023-01-19T17:52:35.739Z,1006.23
2023-01-19T17:54:35.791Z,1006.23
2023-01-19T17:56:35.550Z,1006.13
2023-01-19T17:58:35.870Z,1006.13
2023-01-19T18:00:38.983Z,1006.06
2023-01-19T18:02:36.553Z,1006.06
2023-01-19T18:04:35.455Z,1006.05
2023-01-19T18:06:35.860Z,1006.05
2023-01-19T18:08:35.379Z,1005.95
2023-01-19T18:10:36.224Z,1005.95
2023-01-19T18:12:35.318Z,1006.06
2023-01-19T18:14:35.775Z,1006.06
2023-01-19T18:16:35.329Z,1006.1
2023-01-19T18:18:35.666Z,1006.1
2023-01-19T18:20:36.231Z,1005.93
2023-01-19T18:22:35.822Z,1005.93
2023-01-19T18:24:35.246Z,1005.93
2023-01-19T18:26:35.636Z,1005.93
2023-01-19T18:28:35.140Z,1006.11
2023-01-19T18:30:36.298Z,1006.11
2023-01-19T18:32:38.338Z,1006.18
2023-01-19T18:34:35.576Z,1006.18
2023-01-19T18:36:35.236Z,1006.26
2023-01-19T18:38:35.763Z,1006.26
2023-01-19T18:40:35.690Z,1006.45
2023-01-19T18:42:35.777Z,1006.45
2023-01-19T18:44:35.382Z,1006.4
2023-01-19T18:46:36.266Z,1006.4
2023-01-19T18:48:35.535Z,1006.64
2023-01-19T18:50:36.479Z,1006.64
2023-01-19T18:52:35.553Z,1006.59
2023-01-19T18:54:36.059Z,1006.59
2023-01-19T18:56:35.555Z,1006.79
2023-01-19T18:58:35.034Z,1006.79
2023-01-19T19:00:40.775Z,1006.81
2023-01-19T19:02:35.668Z,1006.81
2023-01-19T19:04:35.891Z,1006.67
2023-01-19T19:06:35.462Z,1006.67
2023-01-19T19:08:35.957Z,1006.59
2023-01-19T19:10:35.910Z,1006.59
2023-01-19T19:12:35.025Z,1006.57
2023-01-19T19:14:35.613Z,1006.45
2023-01-19T19:16:37.455Z,1006.45
2023-01-19T19:18:35.557Z,1006.31
2023-01-19T19:20:36.463Z,1006.31
2023-01-19T19:22:37.047Z,1006.25
2023-01-19T19:24:35.187Z,1006.25
2023-01-19T19:26:35.682Z,1006.35
2023-01-19T19:28:35.047Z,1006.35
2023-01-19T19:30:36.146Z,1006.27
2023-01-19T19:32:35.273Z,1006.27
2023-01-19T19:34:35.752Z,1006.18
2023-01-19T19:36:35.347Z,1006.18
2023-01-19T19:38:35.852Z,1006.45
2023-01-19T19:40:35.661Z,1006.45
2023-01-19T19:42:35.888Z,1006.43
2023-01-19T19:44:35.549Z,1006.43
2023-01-19T19:46:36.149Z,1006.5
2023-01-19T19:48:37.562Z,1006.5
2023-01-19T19:50:36.261Z,1006.51
2023-01-19T19:52:35.514Z,1006.51
2023-01-19T19:54:36.005Z,1006.68
2023-01-19T19:56:35.628Z,1006.68
2023-01-19T19:58:35.134Z,1006.79
2023-01-19T20:00:38.721Z,1006.79
2023-01-19T20:02:35.861Z,1006.81
2023-01-19T20:04:35.477Z,1006.81
2023-01-19T20:06:35.876Z,1006.91
2023-01-19T20:08:35.242Z,1006.91
2023-01-19T20:10:36.422Z,1006.9
2023-01-19T20:12:35.437Z,1006.9
2023-01-19T20:14:36.042Z,1006.93
2023-01-19T20:16:35.707Z,1006.93
2023-01-19T20:18:35.789Z,1006.98
2023-01-19T20:20:35.756Z,1006.98
2023-01-19T20:22:35.994Z,1007
2023-01-19T20:24:35.436Z,1007
2023-01-19T20:26:35.905Z,1007.15
2023-01-19T20:28:35.388Z,1007.15
2023-01-19T20:30:36.722Z,1007.12
2023-01-19T20:32:35.462Z,1007.12
2023-01-19T20:34:35.970Z,1007.08
2023-01-19T20:36:35.662Z,1007.08
2023-01-19T20:38:35.170Z,1007.22
2023-01-19T20:40:35.781Z,1007.22
2023-01-19T20:42:35.326Z,1007.29
2023-01-19T20:44:35.967Z,1007.29
2023-01-19T20:46:35.492Z,1007.28
2023-01-19T20:48:35.295Z,1007.28
2023-01-19T20:50:35.704Z,1007.43
2023-01-19T20:52:35.243Z,1007.43
2023-01-19T20:54:35.644Z,1007.57
2023-01-19T20:56:35.091Z,1007.57
2023-01-19T20:58:35.701Z,1007.68
2023-01-19T21:00:38.680Z,1007.68
2023-01-19T21:02:35.727Z,1007.83
2023-01-19T21:04:35.979Z,1007.83
2023-01-19T21:06:35.456Z,1007.78
2023-01-19T21:08:35.810Z,1007.78
2023-01-19T21:10:35.378Z,1007.85
2023-01-19T21:12:35.783Z,1007.85
2023-01-19T21:14:35.412Z,1007.93
2023-01-19T21:16:35.965Z,1007.93
2023-01-19T21:18:35.303Z,1007.83
2023-01-19T21:20:35.755Z,1007.83
2023-01-19T21:22:35.359Z,1007.77
2023-01-19T21:24:35.875Z,1007.77
2023-01-19T21:26:35.165Z,1007.89
2023-01-19T21:28:35.675Z,1007.89
2023-01-19T21:30:35.378Z,1007.93
2023-01-19T21:32:35.826Z,1007.93
2023-01-19T21:34:35.229Z,1007.88
2023-01-19T21:36:35.833Z,1007.88
2023-01-19T21:38:35.377Z,1007.91
2023-01-19T21:40:35.812Z,1007.91
2023-01-19T21:42:35.266Z,1008
2023-01-19T21:44:36.032Z,1008
2023-01-19T21:46:35.411Z,1007.94
2023-01-19T21:48:35.923Z,1007.94
2023-01-19T21:50:35.677Z,1008.04
2023-01-19T21:52:36.011Z,1008.04
2023-01-19T21:54:35.405Z,1007.95
2023-01-19T21:56:35.916Z,1007.95
2023-01-19T21:58:35.440Z,1008.03
2023-01-19T22:00:38.344Z,1008.03
2023-01-19T22:03:03.101Z,1007.94
2023-01-19T22:04:35.767Z,1007.94
2023-01-19T22:06:35.458Z,1008.01
2023-01-19T22:08:36.038Z,1008.01
2023-01-19T22:10:35.464Z,1008.05
2023-01-19T22:12:35.798Z,1008.05
2023-01-19T22:14:35.381Z,1008.04
2023-01-19T22:16:36.192Z,1008.04
2023-01-19T22:18:36.115Z,1008.07
2023-01-19T22:20:36.005Z,1008.07
2023-01-19T22:22:35.421Z,1008.11
2023-01-19T22:24:35.779Z,1008.11
2023-01-19T22:26:35.223Z,1008.17
2023-01-19T22:28:35.802Z,1008.17
2023-01-19T22:30:35.549Z,1008.23
2023-01-19T22:32:35.750Z,1008.23
2023-01-19T22:34:35.240Z,1008.32
2023-01-19T22:36:35.734Z,1008.33
2023-01-19T22:38:35.343Z,1008.33
2023-01-19T22:40:35.941Z,1008.4
2023-01-19T22:42:35.406Z,1008.4
2023-01-19T22:44:35.863Z,1008.4
2023-01-19T22:46:35.531Z,1008.4
2023-01-19T22:48:35.833Z,1008.35
2023-01-19T22:50:35.396Z,1008.35
2023-01-19T22:52:35.877Z,1008.51
2023-01-19T22:54:35.341Z,1008.51
2023-01-19T22:56:35.900Z,1008.5
2023-01-19T22:58:35.445Z,1008.5
2023-01-19T23:00:42.209Z,1008.45
2023-01-19T23:02:35.856Z,1008.45
2023-01-19T23:04:35.089Z,1008.39
2023-01-19T23:06:35.619Z,1008.39
2023-01-19T23:08:35.139Z,1008.36
2023-01-19T23:10:35.727Z,1008.36
2023-01-19T23:12:35.177Z,1008.42
2023-01-19T23:14:35.745Z,1008.42
2023-01-19T23:16:35.388Z,1008.42
2023-01-19T23:18:35.787Z,1008.42
2023-01-19T23:20:35.397Z,1008.52
2023-01-19T23:22:35.747Z,1008.52
2023-01-19T23:24:35.253Z,1008.5
2023-01-19T23:26:35.663Z,1008.5
2023-01-19T23:28:35.294Z,1008.48
2023-01-19T23:30:35.916Z,1008.48
2023-01-19T23:32:35.295Z,1008.58
2023-01-19T23:34:35.753Z,1008.58
2023-01-19T23:36:35.266Z,1008.51
2023-01-19T23:38:35.860Z,1008.51
2023-01-19T23:40:35.507Z,1008.58
2023-01-19T23:42:35.116Z,1008.58
2023-01-19T23:44:36.178Z,1008.63
2023-01-19T23:46:35.456Z,1008.63
2023-01-19T23:48:35.652Z,1008.62
2023-01-19T23:50:35.252Z,1008.62
2023-01-19T23:52:35.851Z,1008.68
2023-01-19T23:54:35.311Z,1008.68
2023-01-19T23:56:35.724Z,1008.71
2023-01-19T23:58:35.271Z,1008.71
